Hauptseite
METAR-TAF:

METAR-TAF

Flughäfen :

Shanghai Pudong International Airport

Shanghai-Pudong, China

Breite: 31-07N, Länge: 121-46E, Höhe: 4 m

Beobachtung

Neuester Wetterbericht von vor 13 Minuten, um 08:00 UTC
Wind 14 kt aus Ost/Südost
Temperatur 31°C
Luftfeuchtigkeit 66%
Luftdruck 1008 hPa
Sichtweite 10 km oder mehr
Aufgelockert bewölkt in der Höhe von 2300 ft

METAR: ZSPD 180800Z 12007MPS 9999 SCT023 31/24 Q1008 NOSIG

Zeit: 16:13 (08:13 UTC)

Prognose

Neuester Wetterbericht von vor 4 Stunden und 59 Minuten, um 03:14 UTC
Gültige Prognose vom 18 um 06 UTC bis 19 um 06 UTC
Wind 8 kt aus Südost
Sichtweite: 6000 m
Aufgelockert bewölkt in der Höhe von 1500 ft

TAF: ZSPD 180314Z 1806/1906 14004MPS 6000 SCT015 TX34/1806Z TN26/1821Z

Wetterbeobachtungen und Prognosen von mehr als 4000 Flughäfen (METAR und TAF Bericht).

Die verfügbaren Stationen werden durch gelbe und rote Markierungen auf der Karte dargestellt.

Führen Sie die Maus auf sie, um den Namen der Station zu sehen.

Darauf klicken, um die Beobachtung von Wetterbeobachtungen und Prognosen zu sehen.

Um die Karte zu ändern : klicken Sie auf den grünen Tasten mit einem schwarzen Kreuz Zum Vergrößern, auf den grünen Button mit einem Gedankenstrich zu verkleinern, oder auf die grünen Pfeile für benachbarte Karten.


METAR-TAF: